Time,TemperatureF,DewpointF,PressureIn,WindDirection,WindDirectionDegrees,WindSpeedMPH,WindSpeedGustMPH,Humidity,HourlyPrecipIn,Conditions,Clouds,dailyrainin,SoftwareType,DateUTC
2015-09-05 00:00:00,58.9,32.0,29.85,ENE,74,1.0,1.0,36,0.00,,,0.00,Wunderground v.1.15,2015-09-05 07:00:00,
2015-09-05 00:05:00,58.4,31.5,29.85,ENE,74,1.0,2.0,36,0.00,,,0.00,Wunderground v.1.15,2015-09-05 07:05:00,
2015-09-05 00:15:00,57.8,31.7,29.85,ENE,74,1.0,1.0,37,0.00,,,0.00,Wunderground v.1.15,2015-09-05 07:15:00,
2015-09-05 00:25:00,57.3,31.2,29.86,ENE,74,2.0,2.0,37,0.00,,,0.00,Wunderground v.1.15,2015-09-05 07:25:00,
2015-09-05 00:35:00,57.1,31.0,29.86,ENE,74,1.0,2.0,37,0.00,,,0.00,Wunderground v.1.15,2015-09-05 07:35:00,
2015-09-05 00:45:00,57.2,31.1,29.86,ENE,74,1.0,1.0,37,0.00,,,0.00,Wunderground v.1.15,2015-09-05 07:45:00,
2015-09-05 00:55:00,57.3,31.2,29.87,ENE,74,1.0,2.0,37,0.00,,,0.00,Wunderground v.1.15,2015-09-05 07:55:00,
2015-09-05 01:05:00,56.9,31.5,29.86,ENE,74,1.0,1.0,38,0.00,,,0.00,Wunderground v.1.15,2015-09-05 08:05:00,
2015-09-05 01:15:00,56.4,31.7,29.86,ENE,74,1.0,1.0,39,0.00,,,0.00,Wunderground v.1.15,2015-09-05 08:15:00,
2015-09-05 01:20:00,56.4,31.1,29.86,ENE,74,1.0,1.0,38,0.00,,,0.00,Wunderground v.1.15,2015-09-05 08:20:00,
2015-09-05 01:30:00,57.9,31.8,29.87,ENE,67,3.0,4.0,37,0.00,,,0.00,Wunderground v.1.15,2015-09-05 08:30:00,
2015-09-05 01:40:00,58.3,32.1,29.86,ENE,66,2.0,2.0,37,0.00,,,0.00,Wunderground v.1.15,2015-09-05 08:40:00,
2015-09-05 01:45:00,57.5,32.1,29.87,ENE,66,1.0,2.0,38,0.00,,,0.00,Wunderground v.1.15,2015-09-05 08:45:00,
2015-09-05 01:55:00,56.8,32.1,29.87,ENE,65,2.0,2.0,39,0.00,,,0.00,Wunderground v.1.15,2015-09-05 08:55:00,
2015-09-05 02:05:00,56.8,32.7,29.87,ENE,65,1.0,2.0,40,0.00,,,0.00,Wunderground v.1.15,2015-09-05 09:05:00,
2015-09-05 02:15:00,56.7,33.8,29.87,ENE,65,2.0,2.0,42,0.00,,,0.00,Wunderground v.1.15,2015-09-05 09:15:00,
2015-09-05 02:20:00,56.7,34.4,29.88,ENE,65,2.0,2.0,43,0.00,,,0.00,Wunderground v.1.15,2015-09-05 09:20:00,
2015-09-05 02:30:00,56.7,35.6,29.88,ENE,65,2.0,2.0,45,0.00,,,0.00,Wunderground v.1.15,2015-09-05 09:30:00,
2015-09-05 02:40:00,56.8,36.2,29.88,ENE,65,2.0,2.0,46,0.00,,,0.00,Wunderground v.1.15,2015-09-05 09:40:00,
2015-09-05 02:45:00,56.8,36.8,29.88,ENE,65,1.0,2.0,47,0.00,,,0.00,Wunderground v.1.15,2015-09-05 09:45:00,
2015-09-05 02:55:00,56.7,36.7,29.88,ENE,65,1.0,1.0,47,0.00,,,0.00,Wunderground v.1.15,2015-09-05 09:55:00,
2015-09-05 03:05:00,56.5,36.5,29.88,ENE,65,1.0,1.0,47,0.00,,,0.00,Wunderground v.1.15,2015-09-05 10:05:00,
2015-09-05 03:10:00,56.4,36.4,29.88,ENE,65,1.0,1.0,47,0.00,,,0.00,Wunderground v.1.15,2015-09-05 10:10:00,
2015-09-05 03:20:00,56.0,37.1,29.88,ENE,65,2.0,2.0,49,0.00,,,0.00,Wunderground v.1.15,2015-09-05 10:20:00,
2015-09-05 03:30:00,55.7,37.3,29.89,ENE,65,1.0,1.0,50,0.00,,,0.00,Wunderground v.1.15,2015-09-05 10:30:00,
2015-09-05 03:40:00,55.4,38.1,29.89,ENE,65,2.0,2.0,52,0.00,,,0.00,Wunderground v.1.15,2015-09-05 10:40:00,
2015-09-05 03:50:00,55.1,38.7,29.89,ENE,65,2.0,2.0,54,0.00,,,0.00,Wunderground v.1.15,2015-09-05 10:50:00,
2015-09-05 04:00:00,55.0,39.1,29.89,ENE,65,2.0,2.0,55,0.00,,,0.00,Wunderground v.1.15,2015-09-05 11:00:00,
2015-09-05 04:10:00,54.9,39.5,29.89,ENE,65,1.0,1.0,56,0.00,,,0.00,Wunderground v.1.15,2015-09-05 11:10:00,
2015-09-05 04:20:00,54.8,39.4,29.89,ENE,65,1.0,1.0,56,0.00,,,0.00,Wunderground v.1.15,2015-09-05 11:20:00,
2015-09-05 04:25:00,54.7,39.8,29.90,ENE,65,1.0,1.0,57,0.00,,,0.00,Wunderground v.1.15,2015-09-05 11:25:00,
2015-09-05 04:35:00,54.5,39.6,29.89,ENE,65,2.0,2.0,57,0.00,,,0.00,Wunderground v.1.15,2015-09-05 11:35:00,
2015-09-05 04:45:00,54.2,39.7,29.90,ENE,65,2.0,2.0,58,0.00,,,0.00,Wunderground v.1.15,2015-09-05 11:45:00,
2015-09-05 04:55:00,54.0,39.5,29.89,ENE,65,2.0,2.0,58,0.00,,,0.00,Wunderground v.1.15,2015-09-05 11:55:00,
2015-09-05 05:05:00,53.9,39.9,29.89,ENE,64,2.0,2.0,59,0.00,,,0.00,Wunderground v.1.15,2015-09-05 12:05:00,
2015-09-05 05:15:00,53.9,39.9,29.89,ENE,64,2.0,2.0,59,0.00,,,0.00,Wunderground v.1.15,2015-09-05 12:15:00,
2015-09-05 05:25:00,53.9,39.9,29.90,ENE,64,1.0,2.0,59,0.00,,,0.00,Wunderground v.1.15,2015-09-05 12:25:00,
2015-09-05 05:35:00,53.7,38.8,29.90,ENE,64,2.0,2.0,57,0.00,,,0.00,Wunderground v.1.15,2015-09-05 12:35:00,
2015-09-05 05:45:00,53.6,39.2,29.90,ENE,64,2.0,2.0,58,0.00,,,0.00,Wunderground v.1.15,2015-09-05 12:45:00,
2015-09-05 05:55:00,53.4,39.0,29.91,ENE,64,2.0,2.0,58,0.00,,,0.00,Wunderground v.1.15,2015-09-05 12:55:00,
2015-09-05 06:05:00,53.4,38.5,29.91,ENE,64,1.0,2.0,57,0.00,,,0.00,Wunderground v.1.15,2015-09-05 13:05:00,
2015-09-05 06:15:00,53.3,38.4,29.91,ENE,64,1.0,2.0,57,0.00,,,0.00,Wunderground v.1.15,2015-09-05 13:15:00,
2015-09-05 06:25:00,53.2,38.4,29.91,ENE,64,2.0,2.0,57,0.00,,,0.00,Wunderground v.1.15,2015-09-05 13:25:00,
2015-09-05 06:30:00,53.2,38.4,29.92,ENE,64,2.0,2.0,57,0.00,,,0.00,Wunderground v.1.15,2015-09-05 13:30:00,
2015-09-05 06:40:00,53.3,38.4,29.92,ENE,64,1.0,1.0,57,0.00,,,0.00,Wunderground v.1.15,2015-09-05 13:40:00,
2015-09-05 06:45:00,53.4,38.5,29.92,ENE,64,1.0,1.0,57,0.00,,,0.00,Wunderground v.1.15,2015-09-05 13:45:00,
2015-09-05 06:50:00,53.5,38.2,29.93,ENE,64,1.0,1.0,56,0.00,,,0.00,Wunderground v.1.15,2015-09-05 13:50:00,
2015-09-05 07:00:00,53.7,38.4,29.93,ENE,64,1.0,1.0,56,0.00,,,0.00,Wunderground v.1.15,2015-09-05 14:00:00,
2015-09-05 07:10:00,54.0,38.2,29.93,ENE,64,2.0,2.0,55,0.00,,,0.00,Wunderground v.1.15,2015-09-05 14:10:00,
2015-09-05 07:20:00,54.4,38.1,29.93,ENE,63,2.0,2.0,54,0.00,,,0.00,Wunderground v.1.15,2015-09-05 14:20:00,
2015-09-05 07:30:00,54.8,38.0,29.94,ENE,63,2.0,2.0,53,0.00,,,0.00,Wunderground v.1.15,2015-09-05 14:30:00,
2015-09-05 07:40:00,55.4,38.5,29.94,ENE,63,1.0,1.0,53,0.00,,,0.00,Wunderground v.1.15,2015-09-05 14:40:00,
2015-09-05 07:45:00,56.0,39.1,29.94,ENE,63,1.0,1.0,53,0.00,,,0.00,Wunderground v.1.15,2015-09-05 14:45:00,
2015-09-05 07:50:00,56.8,38.3,29.94,ENE,63,0.0,1.0,50,0.00,,,0.00,Wunderground v.1.15,2015-09-05 14:50:00,
2015-09-05 08:00:00,59.9,38.5,29.95,ENE,63,1.0,3.0,45,0.00,,,0.00,Wunderground v.1.15,2015-09-05 15:00:00,
2015-09-05 08:10:00,62.0,38.6,29.95,ENE,63,1.0,1.0,42,0.00,,,0.00,Wunderground v.1.15,2015-09-05 15:10:00,
2015-09-05 08:15:00,62.7,38.6,29.95,ENE,63,1.0,2.0,41,0.00,,,0.00,Wunderground v.1.15,2015-09-05 15:15:00,
2015-09-05 08:25:00,63.4,38.6,29.95,ENE,63,2.0,2.0,40,0.00,,,0.00,Wunderground v.1.15,2015-09-05 15:25:00,
2015-09-05 08:35:00,64.1,39.3,29.95,ESE,109,1.0,1.0,40,0.00,,,0.00,Wunderground v.1.15,2015-09-05 15:35:00,
2015-09-05 08:45:00,64.6,39.1,29.95,East,90,1.0,2.0,39,0.00,,,0.00,Wunderground v.1.15,2015-09-05 15:45:00,
2015-09-05 08:55:00,65.2,38.3,29.95,SSE,147,2.0,2.0,37,0.00,,,0.00,Wunderground v.1.15,2015-09-05 15:55:00,
2015-09-05 09:05:00,64.9,38.7,29.96,SSE,151,2.0,2.0,38,0.00,,,0.00,Wunderground v.1.15,2015-09-05 16:05:00,
2015-09-05 09:10:00,65.4,39.1,29.96,East,90,2.0,2.0,38,0.00,,,0.00,Wunderground v.1.15,2015-09-05 16:10:00,
2015-09-05 09:15:00,65.9,38.2,29.96,SE,146,2.0,2.0,36,0.00,,,0.00,Wunderground v.1.15,2015-09-05 16:15:00,
2015-09-05 09:20:00,66.1,36.9,29.96,SE,142,2.0,4.0,34,0.00,,,0.00,Wunderground v.1.15,2015-09-05 16:20:00,
2015-09-05 09:25:00,66.5,37.2,29.96,East,81,2.0,4.0,34,0.00,,,0.00,Wunderground v.1.15,2015-09-05 16:25:00,
2015-09-05 09:30:00,66.7,36.7,29.97,SSE,160,3.0,3.0,33,0.00,,,0.00,Wunderground v.1.15,2015-09-05 16:30:00,
2015-09-05 09:40:00,66.9,36.8,29.96,East,88,2.0,3.0,33,0.00,,,0.00,Wunderground v.1.15,2015-09-05 16:40:00,